Time;durP1;ratioP1;P1;durP2;ratioP2;P2;SDS_P1;SDS_P2;PMS_P1;PMS_P2;Temp;Humidity;BMP_temperature;BMP_pressure;BME280_temperature;BME280_humidity;BME280_pressure;Samples;Min_cycle;Max_cycle;Signal;HPM_P1;HPM_P2
2021/05/29 00:00:04;;;;;;;26.50;25.00;;;13.60;72.80;;;;;;5020842;28;21217;-77
2021/05/29 00:02:31;;;;;;;27.60;26.10;;;13.50;72.90;;;;;;5022773;28;20487;-77
2021/05/29 00:04:57;;;;;;;27.73;26.17;;;13.50;73.00;;;;;;5021066;28;20574;-76
2021/05/29 00:07:24;;;;;;;27.07;25.67;;;13.50;73.20;;;;;;5020964;28;20981;-77
2021/05/29 00:09:50;;;;;;;26.70;25.20;;;13.50;73.00;;;;;;5020275;28;20484;-76
2021/05/29 00:12:17;;;;;;;26.13;24.63;;;13.50;73.00;;;;;;5023589;28;20595;-77
2021/05/29 00:14:47;;;;;;;28.30;26.80;;;13.50;73.10;;;;;;5023352;28;20472;-77
2021/05/29 00:17:13;;;;;;;28.00;26.50;;;13.50;73.20;;;;;;5016133;28;21017;-77
2021/05/29 00:19:40;;;;;;;27.50;25.90;;;13.40;73.40;;;;;;5020231;28;21239;-77
2021/05/29 00:22:06;;;;;;;26.53;24.93;;;13.40;73.40;;;;;;5020042;28;20573;-76
2021/05/29 00:24:33;;;;;;;26.87;25.37;;;13.50;73.40;;;;;;5015241;28;20463;-77
2021/05/29 00:26:59;;;;;;;26.17;24.80;;;13.60;73.20;;;;;;5016375;28;20502;-77
2021/05/29 00:29:26;;;;;;;26.80;25.30;;;13.50;73.30;;;;;;5020889;28;20965;-77
2021/05/29 00:31:53;;;;;;;26.40;24.90;;;13.50;73.60;;;;;;5017957;28;20541;-77
2021/05/29 00:34:20;;;;;;;26.00;24.50;;;13.30;73.90;;;;;;5022379;28;20530;-77
2021/05/29 00:36:46;;;;;;;26.83;25.43;;;13.30;74.00;;;;;;5017455;28;20531;-77
2021/05/29 00:39:13;;;;;;;26.53;25.03;;;13.20;74.30;;;;;;5025392;28;20458;-77
2021/05/29 00:41:39;;;;;;;26.80;25.30;;;13.20;74.40;;;;;;5023089;28;20459;-77
2021/05/29 00:44:05;;;;;;;25.70;24.23;;;13.20;74.50;;;;;;5022674;28;20480;-77
2021/05/29 00:46:32;;;;;;;27.07;25.67;;;13.20;74.70;;;;;;5008706;28;20476;-76
2021/05/29 00:48:59;;;;;;;26.90;25.40;;;13.20;74.30;;;;;;5008520;28;20456;-76
2021/05/29 00:51:26;;;;;;;26.30;24.90;;;13.20;74.30;;;;;;5021434;28;20578;-76
2021/05/29 00:53:54;;;;;;;26.27;24.87;;;13.20;74.60;;;;;;5021439;28;20459;-76
2021/05/29 00:56:23;;;;;;;26.50;24.93;;;13.20;74.80;;;;;;5018810;28;21304;-76
2021/05/29 00:58:49;;;;;;;27.70;26.10;;;13.20;74.80;;;;;;5021876;28;20460;-76
2021/05/29 01:01:16;;;;;;;27.53;25.83;;;13.20;74.80;;;;;;5015622;28;20528;-76
2021/05/29 01:03:42;;;;;;;25.60;24.20;;;13.10;75.10;;;;;;5012340;28;20517;-77
2021/05/29 01:06:09;;;;;;;25.87;24.37;;;13.20;75.00;;;;;;5019166;28;21013;-77
2021/05/29 01:08:36;;;;;;;26.53;24.97;;;13.20;74.90;;;;;;5021646;28;20498;-77
2021/05/29 01:11:03;;;;;;;26.77;25.17;;;13.10;75.20;;;;;;5021453;28;20467;-77
2021/05/29 01:13:31;;;;;;;26.17;24.77;;;13.00;75.50;;;;;;5022133;28;20546;-77
2021/05/29 01:16:03;;;;;;;25.80;24.40;;;13.00;75.60;;;;;;5008063;28;20547;-77
2021/05/29 01:18:30;;;;;;;26.30;24.80;;;13.00;75.50;;;;;;5021324;28;20459;-77
2021/05/29 01:20:57;;;;;;;27.57;26.07;;;13.00;75.30;;;;;;5019741;28;20456;-77
2021/05/29 01:23:25;;;;;;;27.40;25.90;;;13.10;75.30;;;;;;5021706;28;21310;-77
2021/05/29 01:25:51;;;;;;;25.73;24.33;;;13.00;75.40;;;;;;5007994;28;20502;-77
2021/05/29 01:28:21;;;;;;;26.10;24.70;;;13.00;75.30;;;;;;5020949;28;20467;-77
2021/05/29 01:30:50;;;;;;;26.03;24.73;;;12.90;75.70;;;;;;5009404;28;20548;-77
2021/05/29 01:33:19;;;;;;;26.27;24.87;;;13.00;75.60;;;;;;5006720;28;20983;-77
2021/05/29 01:35:46;;;;;;;25.80;24.30;;;13.00;75.70;;;;;;5020755;28;20501;-77
2021/05/29 01:38:14;;;;;;;25.70;24.40;;;12.90;75.80;;;;;;5018724;28;20508;-77
2021/05/29 01:40:42;;;;;;;26.07;24.77;;;12.90;75.70;;;;;;5011176;28;20463;-77
2021/05/29 01:43:10;;;;;;;26.47;25.03;;;12.90;75.90;;;;;;5034129;28;20598;-77
2021/05/29 01:45:38;;;;;;;25.87;24.43;;;12.90;76.00;;;;;;5020856;28;20459;-77
2021/05/29 01:48:06;;;;;;;26.00;24.60;;;12.90;75.90;;;;;;5016462;28;20455;-77
2021/05/29 01:50:33;;;;;;;26.90;25.40;;;12.90;76.00;;;;;;5021401;28;20458;-77
2021/05/29 01:53:04;;;;;;;28.40;26.80;;;12.80;76.40;;;;;;5022408;28;20482;-77
2021/05/29 01:55:33;;;;;;;26.50;25.10;;;12.80;76.50;;;;;;5013357;28;20543;-77
2021/05/29 01:58:02;;;;;;;25.93;24.50;;;12.80;76.50;;;;;;5010008;28;22043;-77
2021/05/29 02:00:29;;;;;;;26.20;24.80;;;12.80;76.60;;;;;;5013526;28;20456;-77
2021/05/29 02:02:57;;;;;;;25.70;24.20;;;12.80;76.70;;;;;;5018131;28;20484;-77
2021/05/29 02:05:25;;;;;;;26.30;24.70;;;12.80;76.70;;;;;;5020214;28;20472;-77
2021/05/29 02:07:52;;;;;;;26.20;24.70;;;12.90;76.60;;;;;;5018165;28;20539;-77
2021/05/29 02:10:22;;;;;;;25.90;24.50;;;12.90;76.60;;;;;;5021556;28;20466;-77
2021/05/29 02:12:50;;;;;;;27.03;25.63;;;12.90;76.60;;;;;;5021874;28;20471;-77
2021/05/29 02:15:20;;;;;;;26.60;25.10;;;12.90;76.50;;;;;;5010696;28;20463;-77
2021/05/29 02:17:52;;;;;;;25.47;24.07;;;12.80;76.90;;;;;;5022977;28;20471;-78
2021/05/29 02:20:26;;;;;;;26.67;25.07;;;12.70;77.20;;;;;;5021351;28;20550;-77
2021/05/29 02:22:53;;;;;;;27.37;25.50;;;12.70;77.40;;;;;;5025519;28;20483;-77
2021/05/29 02:25:19;;;;;;;26.47;25.07;;;12.60;77.70;;;;;;5017978;28;20456;-77
2021/05/29 02:27:46;;;;;;;25.50;24.20;;;12.60;77.70;;;;;;5025452;28;20468;-77
2021/05/29 02:30:13;;;;;;;26.23;24.83;;;12.60;77.70;;;;;;5016596;28;20946;-77
2021/05/29 02:32:40;;;;;;;24.83;23.50;;;12.60;78.20;;;;;;5021178;28;20476;-77
2021/05/29 02:35:07;;;;;;;25.50;24.10;;;12.50;78.30;;;;;;5023997;28;21330;-77
2021/05/29 02:37:34;;;;;;;26.87;25.40;;;12.50;78.00;;;;;;5012363;28;20468;-77
2021/05/29 02:40:00;;;;;;;26.30;24.70;;;12.50;77.90;;;;;;5019924;28;20530;-77
2021/05/29 02:42:27;;;;;;;24.93;23.63;;;12.50;78.30;;;;;;5028128;28;20563;-77
2021/05/29 02:44:53;;;;;;;27.07;25.57;;;12.40;78.60;;;;;;5021897;28;20555;-77
2021/05/29 02:47:20;;;;;;;26.53;25.13;;;12.40;78.80;;;;;;5006892;28;20474;-77
2021/05/29 02:49:47;;;;;;;26.27;24.90;;;12.30;78.90;;;;;;5024377;28;20471;-77
2021/05/29 02:52:13;;;;;;;26.63;25.03;;;12.20;79.10;;;;;;5026419;28;20563;-77
2021/05/29 02:54:42;;;;;;;25.80;24.20;;;12.10;79.40;;;;;;5023470;28;20477;-77
2021/05/29 02:57:09;;;;;;;25.83;24.43;;;12.10;79.70;;;;;;5024256;28;20456;-77
2021/05/29 02:59:35;;;;;;;26.97;25.30;;;12.10;79.90;;;;;;5023561;28;20463;-77
2021/05/29 03:02:02;;;;;;;25.33;23.93;;;12.10;80.10;;;;;;5025893;28;20527;-77
2021/05/29 03:04:29;;;;;;;26.50;24.90;;;12.00;80.20;;;;;;5023108;28;20582;-77
2021/05/29 03:06:56;;;;;;;26.43;24.93;;;12.00;80.30;;;;;;5024181;28;20467;-77
2021/05/29 03:09:23;;;;;;;26.53;24.90;;;11.90;80.60;;;;;;5022006;28;20458;-77
2021/05/29 03:11:49;;;;;;;25.47;24.10;;;11.90;80.70;;;;;;5015290;28;20512;-77
2021/05/29 03:14:16;;;;;;;25.93;24.47;;;12.00;80.50;;;;;;5016508;28;21351;-77
2021/05/29 03:16:42;;;;;;;26.17;24.70;;;12.00;80.40;;;;;;5024507;28;20460;-77
2021/05/29 03:19:09;;;;;;;26.33;24.83;;;12.00;80.60;;;;;;5023832;28;20653;-77
2021/05/29 03:21:35;;;;;;;25.03;23.50;;;11.90;80.90;;;;;;5015651;28;20509;-77
2021/05/29 03:24:03;;;;;;;24.97;23.67;;;11.90;80.90;;;;;;5019306;28;20998;-77
2021/05/29 03:26:30;;;;;;;25.17;23.77;;;11.90;81.00;;;;;;5019965;28;20965;-77
2021/05/29 03:28:56;;;;;;;25.90;24.40;;;11.80;81.10;;;;;;5016600;28;20545;-77
2021/05/29 03:31:23;;;;;;;25.00;23.63;;;11.80;81.40;;;;;;5013709;28;20511;-77
2021/05/29 03:33:49;;;;;;;26.80;25.20;;;11.80;81.40;;;;;;5026357;28;20465;-77
2021/05/29 03:36:15;;;;;;;25.03;23.43;;;11.90;81.20;;;;;;5008747;28;20486;-77
2021/05/29 03:38:42;;;;;;;27.00;24.97;;;11.90;81.20;;;;;;5023136;28;21123;-77
2021/05/29 03:41:09;;;;;;;29.70;27.07;;;11.90;81.80;;;;;;5024644;28;20513;-77
2021/05/29 03:43:36;;;;;;;25.30;23.80;;;12.00;81.10;;;;;;5026803;28;20953;-76
2021/05/29 03:46:02;;;;;;;25.33;23.83;;;12.10;81.00;;;;;;5021167;28;20578;-77
2021/05/29 03:48:29;;;;;;;25.07;23.67;;;12.10;80.90;;;;;;5021811;28;20460;-77
2021/05/29 03:50:55;;;;;;;28.50;26.80;;;12.20;80.60;;;;;;5021697;28;20463;-77
2021/05/29 03:53:21;;;;;;;24.80;23.40;;;12.20;80.60;;;;;;5021755;28;20477;-77
2021/05/29 03:55:48;;;;;;;25.97;24.57;;;12.40;80.00;;;;;;5019436;28;20460;-77
2021/05/29 03:58:15;;;;;;;25.60;24.20;;;12.60;79.40;;;;;;5023710;28;20460;-77
2021/05/29 04:00:41;;;;;;;26.60;24.90;;;12.70;78.80;;;;;;5018132;28;20464;-77
2021/05/29 04:03:08;;;;;;;25.70;24.10;;;12.80;78.40;;;;;;5023950;28;20560;-77
2021/05/29 04:05:35;;;;;;;26.13;24.63;;;12.90;78.10;;;;;;5017829;28;20471;-77
2021/05/29 04:08:01;;;;;;;27.20;25.40;;;13.00;77.60;;;;;;5022270;28;20842;-77
2021/05/29 04:10:30;;;;;;;25.60;24.20;;;13.10;77.10;;;;;;5016169;28;20461;-77
2021/05/29 04:12:57;;;;;;;25.43;24.03;;;13.10;77.00;;;;;;5019553;28;20480;-77
2021/05/29 04:15:25;;;;;;;26.50;25.00;;;13.10;77.20;;;;;;5012829;28;20471;-77
2021/05/29 04:17:52;;;;;;;24.87;23.57;;;13.20;78.30;;;;;;5022298;28;20926;-77
2021/05/29 04:20:21;;;;;;;25.93;24.43;;;13.30;77.80;;;;;;5022147;28;20476;-77
2021/05/29 04:22:48;;;;;;;26.33;24.83;;;13.30;76.80;;;;;;5022218;28;20526;-77
2021/05/29 04:25:17;;;;;;;27.47;25.67;;;13.30;76.70;;;;;;5015072;28;20547;-77
2021/05/29 04:27:45;;;;;;;27.00;25.40;;;13.40;76.60;;;;;;5020832;28;20488;-77
2021/05/29 04:30:14;;;;;;;26.10;24.63;;;13.50;76.40;;;;;;5014723;28;20460;-77
2021/05/29 04:32:41;;;;;;;26.10;24.70;;;13.30;76.80;;;;;;5023605;28;20486;-77
2021/05/29 04:35:09;;;;;;;30.03;28.37;;;13.40;76.40;;;;;;5020101;28;21150;-77
2021/05/29 04:37:37;;;;;;;27.50;25.90;;;13.50;76.00;;;;;;5024779;28;20466;-77
2021/05/29 04:40:06;;;;;;;28.60;26.90;;;13.30;76.40;;;;;;5016676;28;20469;-78
2021/05/29 04:42:32;;;;;;;29.60;27.80;;;13.30;76.70;;;;;;5025611;28;20480;-77
2021/05/29 04:44:59;;;;;;;28.10;26.43;;;13.40;76.70;;;;;;5020177;28;20513;-77
2021/05/29 04:47:26;;;;;;;27.80;26.10;;;13.50;76.10;;;;;;5022010;28;20462;-77
2021/05/29 04:49:53;;;;;;;27.33;25.83;;;13.50;75.80;;;;;;5006187;28;20494;-77
2021/05/29 04:52:21;;;;;;;28.30;26.70;;;13.50;75.50;;;;;;5022860;28;20483;-76
2021/05/29 04:54:47;;;;;;;32.37;30.60;;;13.60;75.30;;;;;;5018694;28;20464;-76
2021/05/29 04:57:13;;;;;;;28.80;27.10;;;13.70;74.70;;;;;;5007162;28;20452;-76
2021/05/29 04:59:40;;;;;;;28.10;26.40;;;13.70;75.70;;;;;;5020389;28;20527;-76
2021/05/29 05:02:06;;;;;;;29.90;27.90;;;13.90;74.20;;;;;;5022056;28;20922;-76
2021/05/29 05:04:33;;;;;;;28.47;26.77;;;13.80;73.70;;;;;;5020136;28;20467;-76
2021/05/29 05:07:00;;;;;;;27.40;25.80;;;13.80;73.30;;;;;;5019060;28;21189;-76
2021/05/29 05:09:27;;;;;;;29.17;27.37;;;13.90;73.50;;;;;;5017516;28;20479;-76
2021/05/29 05:11:53;;;;;;;27.90;26.20;;;13.90;73.20;;;;;;5024610;28;20513;-77
2021/05/29 05:14:20;;;;;;;28.97;27.20;;;13.90;73.50;;;;;;5023300;28;20455;-77
2021/05/29 05:16:47;;;;;;;30.57;28.57;;;14.00;73.00;;;;;;5014314;28;20491;-77
2021/05/29 05:19:14;;;;;;;28.60;26.60;;;14.20;72.50;;;;;;5024196;28;20538;-76
2021/05/29 05:21:40;;;;;;;28.77;26.97;;;14.20;72.20;;;;;;5021367;28;20905;-77
2021/05/29 05:24:08;;;;;;;27.53;25.93;;;14.20;72.40;;;;;;5022668;28;20488;-77
2021/05/29 05:26:35;;;;;;;28.97;27.27;;;14.30;72.00;;;;;;5021222;28;20465;-77
2021/05/29 05:29:02;;;;;;;29.30;27.60;;;14.40;71.50;;;;;;5020382;28;20463;-77
2021/05/29 05:31:29;;;;;;;29.00;27.30;;;14.50;70.60;;;;;;5021040;28;21009;-77
2021/05/29 05:33:56;;;;;;;28.80;26.90;;;14.50;70.20;;;;;;5023545;28;20950;-77
2021/05/29 05:36:23;;;;;;;28.90;27.10;;;14.60;69.80;;;;;;5017075;28;20466;-78
2021/05/29 05:38:52;;;;;;;28.13;26.50;;;14.60;70.40;;;;;;5022414;28;20466;-77
2021/05/29 05:41:20;;;;;;;28.37;26.70;;;14.60;70.10;;;;;;5021671;28;20802;-78
2021/05/29 05:43:49;;;;;;;27.93;26.17;;;14.80;69.30;;;;;;5027356;28;20479;-77
2021/05/29 05:46:16;;;;;;;28.10;26.50;;;14.80;68.80;;;;;;5013879;28;21291;-78
2021/05/29 05:48:43;;;;;;;30.37;28.37;;;14.80;69.00;;;;;;5015887;28;20472;-77
2021/05/29 05:51:10;;;;;;;27.00;25.40;;;14.90;68.50;;;;;;5021143;28;20461;-78
2021/05/29 05:53:36;;;;;;;27.30;25.80;;;14.90;68.90;;;;;;5020003;28;20249;-78
2021/05/29 05:56:05;;;;;;;29.53;27.80;;;14.70;68.70;;;;;;5020583;28;20459;-77
2021/05/29 05:58:34;;;;;;;26.90;25.50;;;14.80;68.50;;;;;;5025172;28;20703;-78
2021/05/29 06:01:01;;;;;;;27.20;25.60;;;14.90;68.20;;;;;;5021276;28;20584;-79
2021/05/29 06:03:28;;;;;;;28.90;27.30;;;15.20;67.10;;;;;;5020972;28;20689;-80
2021/05/29 06:05:54;;;;;;;27.33;25.67;;;15.20;67.10;;;;;;5026158;28;20455;-77
2021/05/29 06:08:21;;;;;;;29.60;27.80;;;15.30;66.50;;;;;;5027519;28;20458;-78
2021/05/29 06:10:47;;;;;;;27.50;26.00;;;15.30;66.70;;;;;;5027786;28;20463;-79
2021/05/29 06:13:16;;;;;;;27.77;26.17;;;15.20;67.00;;;;;;5029478;28;20503;-79
2021/05/29 06:21:09;;;;;;;27.67;26.00;;;15.40;66.30;;;;;;5016585;28;20457;-76
2021/05/29 06:23:35;;;;;;;27.37;25.77;;;15.40;66.00;;;;;;5021032;28;20507;-76
2021/05/29 06:26:02;;;;;;;27.20;25.60;;;15.40;65.80;;;;;;5023346;28;20466;-77
2021/05/29 06:28:28;;;;;;;26.57;25.17;;;15.40;65.70;;;;;;5024318;28;20471;-77
2021/05/29 06:30:56;;;;;;;26.63;25.23;;;15.40;65.40;;;;;;5021938;28;20467;-76
2021/05/29 06:33:22;;;;;;;28.50;26.70;;;15.50;65.00;;;;;;5024539;28;20483;-76
2021/05/29 06:35:49;;;;;;;27.80;26.20;;;15.50;65.00;;;;;;5009328;28;20465;-76
2021/05/29 06:38:15;;;;;;;28.07;26.50;;;15.40;65.20;;;;;;5024396;28;20472;-77
2021/05/29 06:40:42;;;;;;;27.73;26.10;;;15.50;64.80;;;;;;5017199;28;21176;-75
2021/05/29 06:43:08;;;;;;;26.70;25.10;;;15.50;64.70;;;;;;5020522;28;20598;-75
2021/05/29 06:45:35;;;;;;;27.87;26.07;;;15.60;64.40;;;;;;5017255;28;20896;-74
2021/05/29 06:48:02;;;;;;;25.93;24.50;;;15.60;64.40;;;;;;5020061;28;20460;-76
2021/05/29 06:50:29;;;;;;;27.30;25.50;;;15.70;64.10;;;;;;5024602;28;20470;-76
2021/05/29 06:52:59;;;;;;;27.40;25.80;;;15.80;64.20;;;;;;5032510;28;20626;-77
2021/05/29 07:00:54;;;;;;;27.40;25.90;;;15.80;63.50;;;;;;5020951;28;20931;-79
2021/05/29 07:03:22;;;;;;;27.90;26.30;;;15.70;63.40;;;;;;5021811;28;20231;-80
2021/05/29 07:05:48;;;;;;;26.23;24.73;;;15.60;63.80;;;;;;5026294;28;20553;-79
2021/05/29 07:08:15;;;;;;;25.90;24.50;;;15.70;62.90;;;;;;5026621;28;20476;-77
2021/05/29 07:10:41;;;;;;;27.13;25.53;;;15.80;62.50;;;;;;5020286;28;20469;-77
2021/05/29 07:13:08;;;;;;;26.03;24.60;;;15.90;62.60;;;;;;5018833;28;20476;-76
2021/05/29 07:15:37;;;;;;;24.40;23.20;;;16.00;61.70;;;;;;5016457;28;20457;-76
2021/05/29 07:18:07;;;;;;;26.40;25.00;;;16.10;61.00;;;;;;5010263;28;20452;-76
2021/05/29 07:20:34;;;;;;;26.50;25.07;;;16.20;60.20;;;;;;5021839;28;20456;-76
2021/05/29 07:23:01;;;;;;;25.30;23.60;;;16.20;60.10;;;;;;5019887;28;20483;-76
2021/05/29 07:25:29;;;;;;;25.70;24.30;;;16.30;60.00;;;;;;5020402;28;20468;-76
2021/05/29 07:27:56;;;;;;;25.60;24.30;;;16.50;59.10;;;;;;5009298;28;20461;-76
2021/05/29 07:30:23;;;;;;;25.80;24.40;;;16.60;58.20;;;;;;5013232;28;21250;-78
2021/05/29 07:32:49;;;;;;;26.40;25.00;;;16.60;58.10;;;;;;5021310;28;20480;-76
2021/05/29 07:35:16;;;;;;;25.90;24.50;;;16.60;58.60;;;;;;5020021;28;20460;-77
2021/05/29 07:37:44;;;;;;;27.33;25.83;;;16.80;57.90;;;;;;5015349;28;20490;-76
2021/05/29 07:40:11;;;;;;;26.43;25.00;;;16.80;57.70;;;;;;5018825;28;20946;-76
2021/05/29 07:42:38;;;;;;;25.57;24.07;;;16.70;57.90;;;;;;5024981;28;20566;-77
2021/05/29 07:45:06;;;;;;;26.50;25.00;;;16.80;57.80;;;;;;5015688;28;20538;-77
2021/05/29 07:47:32;;;;;;;26.27;24.70;;;16.90;57.10;;;;;;5017244;28;20897;-77
2021/05/29 07:49:59;;;;;;;26.37;24.87;;;16.90;57.00;;;;;;5014403;28;20471;-77
2021/05/29 07:52:25;;;;;;;25.97;24.47;;;17.00;57.20;;;;;;5015619;28;20558;-77
2021/05/29 07:54:53;;;;;;;26.20;24.60;;;17.00;56.30;;;;;;5016847;28;20551;-77
2021/05/29 07:57:19;;;;;;;25.27;23.87;;;17.10;56.50;;;;;;5010144;28;20529;-76
2021/05/29 07:59:46;;;;;;;25.23;23.83;;;17.10;56.60;;;;;;5014400;28;20799;-77
2021/05/29 08:02:13;;;;;;;25.53;24.03;;;17.10;56.30;;;;;;5015223;28;20537;-77
2021/05/29 08:04:40;;;;;;;25.60;24.20;;;17.20;56.20;;;;;;5014060;28;20473;-77
2021/05/29 08:07:07;;;;;;;24.40;23.10;;;17.20;54.70;;;;;;5017092;28;20460;-77
2021/05/29 08:09:33;;;;;;;26.20;24.57;;;17.30;54.60;;;;;;5013655;28;20465;-77
2021/05/29 08:12:01;;;;;;;26.60;25.10;;;17.30;54.30;;;;;;5015442;28;20482;-77
2021/05/29 08:14:27;;;;;;;25.53;24.03;;;17.30;53.70;;;;;;5013474;28;20964;-77
2021/05/29 08:16:54;;;;;;;26.30;24.90;;;17.30;53.90;;;;;;5004470;28;20469;-76
2021/05/29 08:19:20;;;;;;;25.00;23.60;;;17.60;52.40;;;;;;5016554;28;20834;-77
2021/05/29 08:21:49;;;;;;;24.50;23.07;;;17.50;49.70;;;;;;5021017;28;20939;-76
2021/05/29 08:24:16;;;;;;;25.97;24.57;;;17.70;50.50;;;;;;5019408;28;20541;-77
2021/05/29 08:26:43;;;;;;;25.10;23.80;;;17.70;51.00;;;;;;5014219;28;20922;-76
2021/05/29 08:29:11;;;;;;;25.07;23.60;;;17.70;52.20;;;;;;5016345;28;20523;-77
2021/05/29 08:31:38;;;;;;;24.73;23.43;;;17.70;51.90;;;;;;5017458;28;20471;-76
2021/05/29 08:34:07;;;;;;;27.63;26.03;;;18.00;51.00;;;;;;5019484;28;20468;-77
2021/05/29 08:36:33;;;;;;;25.30;23.87;;;18.10;51.20;;;;;;5020311;28;20470;-77
2021/05/29 08:39:00;;;;;;;25.60;24.20;;;18.20;50.70;;;;;;5019632;28;20822;-77
2021/05/29 08:41:27;;;;;;;26.97;25.47;;;18.20;51.60;;;;;;5021874;28;20463;-76
2021/05/29 08:43:54;;;;;;;26.30;24.80;;;18.20;51.90;;;;;;5028298;28;20482;-77
2021/05/29 08:46:22;;;;;;;25.80;24.20;;;17.90;52.00;;;;;;5019346;28;20478;-77
2021/05/29 08:48:48;;;;;;;26.20;24.50;;;17.70;52.70;;;;;;5022063;28;20540;-77
2021/05/29 08:51:17;;;;;;;27.20;25.33;;;17.80;53.30;;;;;;5019638;28;20464;-77
2021/05/29 08:53:45;;;;;;;26.00;24.60;;;18.10;52.70;;;;;;5021951;28;20483;-76
2021/05/29 08:56:13;;;;;;;26.90;25.37;;;18.10;52.70;;;;;;5020316;28;20533;-77
2021/05/29 08:58:39;;;;;;;25.47;23.97;;;18.20;51.80;;;;;;5021691;28;20769;-76
2021/05/29 09:01:06;;;;;;;26.20;24.70;;;18.40;48.90;;;;;;5020151;28;20518;-77
2021/05/29 09:03:56;;;;;;;26.40;24.80;;;18.30;49.70;;;;;;5016477;28;21003;-77
2021/05/29 09:06:41;;;;;;;25.30;23.90;;;18.30;50.70;;;;;;5014104;28;20466;-74
2021/05/29 09:09:11;;;;;;;25.20;23.80;;;18.20;50.70;;;;;;5020655;28;20847;-74
2021/05/29 09:11:45;;;;;;;25.20;23.80;;;18.20;49.80;;;;;;5019645;28;20462;-75
2021/05/29 09:14:36;;;;;;;26.70;25.00;;;18.30;48.40;;;;;;5020095;28;20467;-77
2021/05/29 09:17:10;;;;;;;26.30;24.90;;;18.30;49.00;;;;;;5018082;28;20454;-77
2021/05/29 09:20:01;;;;;;;25.23;23.73;;;18.20;49.80;;;;;;5019829;28;20451;-77
2021/05/29 09:22:29;;;;;;;25.73;24.23;;;18.20;49.10;;;;;;5008778;28;20591;-77
2021/05/29 09:25:01;;;;;;;25.60;24.20;;;18.30;48.90;;;;;;5015659;28;20962;-78
2021/05/29 09:27:28;;;;;;;26.33;24.83;;;18.20;48.40;;;;;;5020876;28;20553;-77
2021/05/29 09:29:54;;;;;;;25.83;24.23;;;18.30;49.20;;;;;;5011147;28;20471;-77
2021/05/29 09:32:21;;;;;;;25.63;24.23;;;18.50;48.20;;;;;;5014337;28;20471;-76
2021/05/29 09:34:51;;;;;;;25.53;24.13;;;18.60;47.90;;;;;;5020235;28;20980;-76
2021/05/29 09:37:22;;;;;;;26.00;24.50;;;18.80;50.00;;;;;;5021233;28;20459;-76
2021/05/29 09:39:50;;;;;;;25.23;23.93;;;18.80;50.30;;;;;;5015529;28;20463;-76
2021/05/29 09:42:18;;;;;;;25.27;23.87;;;18.70;49.90;;;;;;5018694;28;20993;-76
2021/05/29 09:44:45;;;;;;;25.03;23.73;;;18.80;49.70;;;;;;5019868;28;20886;-76
2021/05/29 09:47:14;;;;;;;25.83;24.43;;;18.90;49.10;;;;;;5019162;28;20478;-76
2021/05/29 09:49:50;;;;;;;27.03;25.43;;;19.20;48.80;;;;;;5016384;28;21052;-76
2021/05/29 09:52:32;;;;;;;27.53;25.93;;;19.50;48.10;;;;;;5018087;28;20631;-77
2021/05/29 09:55:00;;;;;;;25.53;24.20;;;19.50;48.20;;;;;;5016875;28;21049;-77
2021/05/29 09:57:27;;;;;;;26.87;25.43;;;19.40;48.20;;;;;;5012744;28;21113;-76
2021/05/29 09:59:58;;;;;;;25.90;24.50;;;19.50;49.10;;;;;;5016340;28;20476;-76
2021/05/29 10:02:26;;;;;;;26.67;25.27;;;19.80;48.90;;;;;;5002552;28;20481;-76
2021/05/29 10:04:54;;;;;;;26.50;25.03;;;20.10;48.60;;;;;;5006685;28;20481;-76
2021/05/29 10:07:22;;;;;;;26.00;24.50;;;20.30;47.80;;;;;;5021100;28;20468;-76
2021/05/29 10:09:50;;;;;;;26.67;25.27;;;20.20;48.00;;;;;;5018802;28;20464;-76
2021/05/29 10:12:16;;;;;;;25.60;24.20;;;20.30;48.20;;;;;;5002361;28;20477;-76
2021/05/29 10:14:44;;;;;;;26.10;24.63;;;20.20;47.80;;;;;;5018224;28;21029;-76
2021/05/29 10:17:12;;;;;;;25.97;24.57;;;19.90;48.50;;;;;;5016125;28;20452;-76
2021/05/29 10:19:39;;;;;;;29.23;27.53;;;20.10;49.00;;;;;;5015863;28;20470;-76
2021/05/29 10:22:08;;;;;;;25.80;24.47;;;20.30;48.70;;;;;;5020586;28;20512;-76
2021/05/29 10:24:36;;;;;;;25.80;24.40;;;20.20;48.50;;;;;;5010545;28;20488;-77
2021/05/29 10:27:07;;;;;;;25.23;23.83;;;19.90;48.60;;;;;;5005053;28;20467;-76
2021/05/29 10:29:35;;;;;;;26.20;24.80;;;19.60;49.00;;;;;;5021058;28;20558;-76
2021/05/29 10:32:16;;;;;;;26.97;25.20;;;19.70;49.00;;;;;;5021729;28;20514;-76
2021/05/29 10:34:54;;;;;;;26.70;25.10;;;19.90;49.20;;;;;;5019581;28;20918;-76
2021/05/29 10:37:39;;;;;;;26.27;24.87;;;19.90;49.30;;;;;;5012862;28;20447;-76
2021/05/29 10:40:22;;;;;;;25.07;23.67;;;19.90;47.60;;;;;;5025008;28;20466;-76
2021/05/29 10:43:12;;;;;;;25.40;23.90;;;19.70;47.30;;;;;;5031211;28;20563;-77
2021/05/29 10:45:40;;;;;;;26.93;25.43;;;19.80;47.20;;;;;;5024231;28;20582;-77
2021/05/29 10:48:09;;;;;;;26.77;25.20;;;19.90;46.50;;;;;;5024741;28;20519;-76
2021/05/29 10:50:55;;;;;;;26.50;24.90;;;20.00;46.30;;;;;;5025138;28;20466;-77
2021/05/29 10:53:41;;;;;;;25.40;24.10;;;20.20;45.70;;;;;;5025388;28;20479;-77
2021/05/29 10:56:36;;;;;;;24.60;23.30;;;20.20;45.70;;;;;;5009717;28;20464;-76
2021/05/29 10:59:12;;;;;;;24.47;23.17;;;19.90;45.10;;;;;;5005742;28;20457;-76
2021/05/29 11:02:01;;;;;;;26.17;24.77;;;20.00;44.80;;;;;;5023562;28;20464;-76
2021/05/29 11:04:27;;;;;;;25.73;24.33;;;20.00;44.90;;;;;;5024528;28;20534;-76
2021/05/29 11:06:55;;;;;;;24.90;23.60;;;19.80;45.20;;;;;;5004431;28;20810;-77
2021/05/29 11:09:53;;;;;;;26.33;24.93;;;19.50;46.20;;;;;;5023011;28;20569;-77
2021/05/29 11:12:21;;;;;;;24.47;23.20;;;19.60;45.40;;;;;;4963479;28;20483;-74
2021/05/29 11:14:55;;;;;;;25.10;23.70;;;19.60;45.50;;;;;;5008031;28;20837;-74
2021/05/29 11:17:24;;;;;;;24.40;23.00;;;19.90;45.20;;;;;;5019048;28;20589;-76
2021/05/29 11:20:06;;;;;;;26.53;24.93;;;19.80;44.90;;;;;;5016826;28;20468;-76
2021/05/29 11:22:40;;;;;;;24.33;22.70;;;19.60;45.90;;;;;;5014185;28;20504;-74
2021/05/29 11:25:09;;;;;;;24.93;23.63;;;19.40;46.20;;;;;;5022618;28;20475;-75
2021/05/29 11:27:39;;;;;;;24.80;23.50;;;19.30;45.80;;;;;;5023264;28;21300;-76
2021/05/29 11:30:09;;;;;;;25.00;23.70;;;19.70;45.20;;;;;;5018440;28;20508;-77
2021/05/29 11:32:52;;;;;;;23.40;22.20;;;19.90;44.80;;;;;;5020382;28;20490;-75
2021/05/29 11:35:31;;;;;;;25.83;24.43;;;20.20;41.00;;;;;;5022518;28;20455;-77
2021/05/29 11:38:12;;;;;;;25.13;23.63;;;20.20;42.00;;;;;;5012367;28;20553;-75
2021/05/29 11:40:44;;;;;;;24.67;23.37;;;20.10;41.50;;;;;;5018536;28;20460;-77
2021/05/29 11:43:11;;;;;;;24.93;23.53;;;20.10;41.50;;;;;;5025572;28;21064;-77
2021/05/29 11:45:38;;;;;;;24.60;23.10;;;20.10;40.00;;;;;;5020299;28;20477;-81
2021/05/29 11:48:06;;;;;;;25.80;24.40;;;20.10;40.00;;;;;;5010219;28;20473;-78
2021/05/29 11:50:33;;;;;;;27.47;25.73;;;20.30;41.00;;;;;;5017098;28;20457;-82
2021/05/29 11:52:59;;;;;;;24.80;23.50;;;20.40;41.60;;;;;;5024311;28;20850;-81
2021/05/29 11:55:26;;;;;;;24.43;23.03;;;20.60;40.60;;;;;;5022002;28;20516;-78
2021/05/29 11:57:57;;;;;;;24.00;22.70;;;20.40;40.80;;;;;;5026007;28;20485;-79
2021/05/29 12:00:25;;;;;;;24.90;23.60;;;20.30;39.60;;;;;;5026857;28;20474;-80
2021/05/29 12:02:52;;;;;;;26.03;24.63;;;20.40;40.10;;;;;;5025316;28;21053;-77
2021/05/29 12:05:20;;;;;;;24.90;23.60;;;20.60;39.70;;;;;;5021663;28;20503;-78
2021/05/29 12:07:59;;;;;;;25.43;24.03;;;20.60;37.70;;;;;;5023401;28;20487;-77
2021/05/29 12:10:26;;;;;;;24.67;23.27;;;20.70;38.40;;;;;;5020982;28;20888;-78
2021/05/29 12:12:52;;;;;;;24.67;23.33;;;20.90;38.90;;;;;;5021612;28;21048;-77
2021/05/29 12:15:19;;;;;;;23.23;22.03;;;21.00;38.00;;;;;;5021394;28;20961;-76
2021/05/29 12:17:45;;;;;;;24.10;22.90;;;20.90;39.10;;;;;;5015557;28;20475;-77
2021/05/29 12:20:14;;;;;;;24.17;22.87;;;21.10;38.60;;;;;;5018065;28;20551;-75
2021/05/29 12:22:40;;;;;;;23.87;22.47;;;21.30;38.30;;;;;;5005936;28;20488;-78
2021/05/29 12:25:11;;;;;;;24.70;23.40;;;21.60;34.80;;;;;;5021420;28;20508;-79
2021/05/29 12:27:41;;;;;;;24.43;23.13;;;21.60;33.60;;;;;;5021956;28;20487;-78
2021/05/29 12:30:13;;;;;;;24.00;22.70;;;21.60;34.60;;;;;;5032686;28;20492;-82
2021/05/29 12:32:41;;;;;;;23.80;22.60;;;21.40;36.20;;;;;;5028341;28;20508;-82
2021/05/29 12:35:10;;;;;;;24.35;22.95;;;21.70;36.90;;;;;;5020764;28;20484;-82
2021/05/29 12:37:38;;;;;;;25.17;23.70;;;21.70;38.00;;;;;;5025961;28;20204;-82
2021/05/29 12:40:11;;;;;;;23.77;22.37;;;21.40;38.70;;;;;;5023848;28;20945;-81
2021/05/29 12:42:43;;;;;;;24.47;23.07;;;21.20;37.80;;;;;;5035280;28;20495;-80
2021/05/29 12:45:17;;;;;;;24.47;23.13;;;21.10;38.60;;;;;;5024158;28;20900;-79